createdAt,value
2022-10-19T00:02:25.477Z,4.60
2022-10-19T00:04:52.444Z,4.60
2022-10-19T00:07:19.338Z,4.50
2022-10-19T00:09:46.214Z,4.50
2022-10-19T00:12:13.456Z,4.40
2022-10-19T00:14:40.360Z,4.50
2022-10-19T00:17:07.245Z,4.50
2022-10-19T00:19:34.223Z,4.40
2022-10-19T00:22:01.195Z,4.40
2022-10-19T00:24:28.034Z,4.40
2022-10-19T00:26:54.899Z,4.30
2022-10-19T00:29:21.807Z,4.40
2022-10-19T00:31:51.572Z,4.30
2022-10-19T00:34:18.608Z,4.30
2022-10-19T00:36:45.485Z,4.30
2022-10-19T00:39:13.906Z,4.30
2022-10-19T00:41:41.592Z,4.30
2022-10-19T00:44:28.678Z,4.30
2022-10-19T00:46:59.487Z,4.30
2022-10-19T00:49:28.812Z,4.20
2022-10-19T00:52:02.730Z,4.20
2022-10-19T00:54:31.332Z,4.20
2022-10-19T00:56:58.819Z,4.20
2022-10-19T00:59:27.002Z,4.10
2022-10-19T01:01:54.512Z,4.10
2022-10-19T01:04:22.250Z,4.10
2022-10-19T01:06:49.037Z,4.10
2022-10-19T01:09:15.845Z,4.10
2022-10-19T01:11:47.523Z,4.00
2022-10-19T01:14:14.746Z,4.00
2022-10-19T01:16:49.299Z,3.90
2022-10-19T01:19:25.296Z,3.90
2022-10-19T01:22:01.690Z,3.90
2022-10-19T01:24:40.559Z,3.80
2022-10-19T01:27:23.119Z,3.80
2022-10-19T01:29:55.943Z,3.80
2022-10-19T01:32:24.718Z,3.70
2022-10-19T01:34:54.834Z,3.70
2022-10-19T01:37:46.602Z,3.70
2022-10-19T01:40:33.655Z,3.70
2022-10-19T01:43:08.848Z,3.70
2022-10-19T01:45:41.763Z,3.70
2022-10-19T01:48:14.210Z,3.70
2022-10-19T01:50:57.501Z,3.70
2022-10-19T01:53:24.594Z,3.70
2022-10-19T01:55:52.769Z,3.70
2022-10-19T01:58:22.822Z,3.70
2022-10-19T02:00:52.344Z,3.70
2022-10-19T02:03:19.497Z,3.70
2022-10-19T02:05:47.415Z,3.70
2022-10-19T02:08:20.485Z,3.70
2022-10-19T02:10:47.832Z,3.70
2022-10-19T02:13:15.775Z,3.60
2022-10-19T02:15:45.070Z,3.60
2022-10-19T02:18:13.943Z,3.70
2022-10-19T02:20:40.777Z,3.60
2022-10-19T02:23:07.627Z,3.60
2022-10-19T02:25:35.657Z,3.50
2022-10-19T02:28:03.531Z,3.50
2022-10-19T02:30:30.461Z,3.50
2022-10-19T02:32:57.393Z,3.50
2022-10-19T02:35:24.358Z,3.40
2022-10-19T02:37:51.286Z,3.40
2022-10-19T02:40:18.408Z,3.40
2022-10-19T02:42:51.230Z,3.30
2022-10-19T02:45:26.091Z,3.30
2022-10-19T02:47:55.002Z,3.30
2022-10-19T02:50:22.547Z,3.30
2022-10-19T02:52:49.376Z,3.20
2022-10-19T02:55:16.218Z,3.20
2022-10-19T02:57:43.002Z,3.20
2022-10-19T03:00:10.109Z,3.10
2022-10-19T03:02:36.936Z,3.10
2022-10-19T03:05:04.209Z,3.10
2022-10-19T03:07:31.193Z,3.00
2022-10-19T03:09:58.563Z,3.00
2022-10-19T03:12:25.404Z,3.00
2022-10-19T03:14:52.408Z,2.90
2022-10-19T03:17:19.525Z,2.90
2022-10-19T03:19:46.491Z,2.90
2022-10-19T03:22:14.734Z,2.90
2022-10-19T03:24:41.618Z,2.80
2022-10-19T03:27:08.613Z,2.80
2022-10-19T03:29:35.386Z,2.80
2022-10-19T03:32:02.307Z,2.80
2022-10-19T03:34:29.201Z,2.80
2022-10-19T03:36:56.893Z,2.80
2022-10-19T03:39:23.657Z,2.80
2022-10-19T03:41:50.670Z,2.80
2022-10-19T03:44:17.475Z,2.80
2022-10-19T03:46:44.311Z,2.70
2022-10-19T03:49:11.622Z,2.80
2022-10-19T03:51:38.385Z,2.70
2022-10-19T03:54:07.443Z,2.70
2022-10-19T03:56:34.759Z,2.70
2022-10-19T03:59:02.394Z,2.70
2022-10-19T04:01:33.019Z,2.70
2022-10-19T04:04:02.719Z,2.70
2022-10-19T04:06:31.184Z,2.60
2022-10-19T04:08:58.111Z,2.60
2022-10-19T04:11:26.195Z,2.60
2022-10-19T04:13:53.629Z,2.60
2022-10-19T04:16:20.908Z,2.60
2022-10-19T04:18:47.737Z,2.60
2022-10-19T04:21:23.102Z,2.60
2022-10-19T04:23:51.346Z,2.60
2022-10-19T04:26:18.271Z,2.60
2022-10-19T04:28:45.126Z,2.50
2022-10-19T04:31:12.808Z,2.50
2022-10-19T04:33:40.227Z,2.60
2022-10-19T04:36:08.045Z,2.50
2022-10-19T04:38:35.284Z,2.50
2022-10-19T04:41:06.578Z,2.50
2022-10-19T04:43:33.479Z,2.50
2022-10-19T04:46:07.647Z,2.50
2022-10-19T04:48:35.157Z,2.60
2022-10-19T04:51:02.191Z,2.50
2022-10-19T04:53:29.072Z,2.50
2022-10-19T04:55:56.072Z,2.50
2022-10-19T04:58:23.045Z,2.50
2022-10-19T05:00:50.050Z,2.50
2022-10-19T05:03:17.688Z,2.50
2022-10-19T05:05:44.552Z,2.50
2022-10-19T05:08:11.583Z,2.50
2022-10-19T05:10:38.698Z,2.50
2022-10-19T05:13:05.745Z,2.50
2022-10-19T05:15:33.100Z,2.50
2022-10-19T05:17:59.941Z,2.50
2022-10-19T05:20:27.370Z,2.50
2022-10-19T05:22:54.308Z,2.50
2022-10-19T05:25:21.151Z,2.50
2022-10-19T05:27:51.555Z,2.50
2022-10-19T05:30:18.931Z,2.50
2022-10-19T05:32:45.777Z,2.50
2022-10-19T05:35:12.784Z,2.50
2022-10-19T05:37:39.694Z,2.50
2022-10-19T05:40:06.909Z,2.50
2022-10-19T05:42:33.884Z,2.50
2022-10-19T05:45:00.756Z,2.40
2022-10-19T05:47:30.277Z,2.40
2022-10-19T05:49:58.028Z,2.40
2022-10-19T05:52:24.890Z,2.50
2022-10-19T05:54:51.768Z,2.50
2022-10-19T05:57:18.654Z,2.50
2022-10-19T05:59:45.465Z,2.50
2022-10-19T06:02:15.315Z,2.40
2022-10-19T06:04:42.332Z,2.40
2022-10-19T06:07:09.204Z,2.40
2022-10-19T06:09:37.232Z,2.50
2022-10-19T06:12:04.122Z,2.40
2022-10-19T06:14:31.023Z,2.40
2022-10-19T06:16:57.979Z,2.50
2022-10-19T06:19:24.923Z,2.50
2022-10-19T06:21:51.799Z,2.60
2022-10-19T06:24:18.705Z,2.60
2022-10-19T06:26:45.611Z,2.60
2022-10-19T06:29:12.568Z,2.60
2022-10-19T06:31:39.451Z,2.60
2022-10-19T06:34:06.883Z,2.60
2022-10-19T06:36:33.831Z,2.60
2022-10-19T06:39:03.072Z,2.60
2022-10-19T06:41:31.634Z,2.60
2022-10-19T06:43:58.555Z,2.70
2022-10-19T06:46:26.168Z,2.70
2022-10-19T06:49:00.605Z,2.70
2022-10-19T06:51:28.904Z,2.70
2022-10-19T06:53:57.249Z,2.80
2022-10-19T06:56:24.987Z,2.80
2022-10-19T06:58:51.896Z,2.80
2022-10-19T07:01:19.379Z,2.90
2022-10-19T07:03:46.347Z,2.90
2022-10-19T07:06:13.655Z,2.90
2022-10-19T07:08:41.694Z,3.00
2022-10-19T07:11:09.832Z,3.00
2022-10-19T07:13:37.000Z,3.00
2022-10-19T07:16:07.081Z,3.10
2022-10-19T07:18:34.631Z,3.20
2022-10-19T07:21:02.688Z,3.20
2022-10-19T07:23:30.087Z,3.20
2022-10-19T07:26:01.775Z,3.30
2022-10-19T07:28:29.663Z,3.30
2022-10-19T07:30:56.724Z,3.40
2022-10-19T07:33:23.642Z,3.40
2022-10-19T07:35:50.476Z,3.50
2022-10-19T07:38:17.370Z,3.50
2022-10-19T07:40:46.557Z,3.60
2022-10-19T07:43:14.420Z,3.60
2022-10-19T07:45:41.273Z,3.70
2022-10-19T07:48:08.181Z,3.70
2022-10-19T07:50:35.003Z,3.80
2022-10-19T07:53:05.379Z,3.80
2022-10-19T07:55:34.238Z,3.90
2022-10-19T07:58:02.159Z,4.00
2022-10-19T08:00:29.870Z,4.00
2022-10-19T08:03:31.245Z,4.00
2022-10-19T08:05:43.996Z,4.10
2022-10-19T08:08:10.874Z,4.20
2022-10-19T08:10:37.762Z,4.20
2022-10-19T08:13:04.773Z,4.30
2022-10-19T08:15:33.026Z,4.30
2022-10-19T08:18:00.821Z,4.40
2022-10-19T08:20:27.928Z,4.40
2022-10-19T08:22:57.990Z,4.50
2022-10-19T08:25:26.167Z,4.50
2022-10-19T08:27:53.111Z,4.60
2022-10-19T08:30:20.117Z,4.60
2022-10-19T08:32:47.089Z,4.70
2022-10-19T08:35:14.045Z,4.70
2022-10-19T08:37:45.148Z,4.80
2022-10-19T08:40:20.895Z,4.80
2022-10-19T08:42:53.956Z,4.90
2022-10-19T08:45:36.282Z,4.90
2022-10-19T08:48:10.713Z,5.00
2022-10-19T08:50:38.853Z,5.10
2022-10-19T08:53:07.803Z,5.10
2022-10-19T08:55:52.575Z,5.20
2022-10-19T08:58:28.664Z,5.30
2022-10-19T09:01:00.387Z,5.30
2022-10-19T09:03:37.850Z,5.40
2022-10-19T09:06:20.940Z,5.50
2022-10-19T09:08:48.646Z,5.50
2022-10-19T09:11:17.795Z,5.60
2022-10-19T09:14:04.210Z,5.70
2022-10-19T09:16:34.311Z,5.70
2022-10-19T09:19:01.178Z,5.80
2022-10-19T09:21:40.844Z,5.80
2022-10-19T09:24:16.352Z,5.90
2022-10-19T09:26:50.964Z,5.90
2022-10-19T09:29:36.760Z,6.00
2022-10-19T09:32:05.216Z,6.00
2022-10-19T09:34:37.097Z,6.10
2022-10-19T09:37:04.249Z,6.20
2022-10-19T09:39:31.192Z,6.20
2022-10-19T09:41:59.503Z,6.30
2022-10-19T09:44:27.294Z,6.30
2022-10-19T09:47:03.353Z,6.40
2022-10-19T09:49:43.722Z,6.50
2022-10-19T09:52:30.862Z,6.60
2022-10-19T09:55:17.849Z,6.70
2022-10-19T09:57:45.952Z,6.70
2022-10-19T10:00:20.204Z,6.70
2022-10-19T10:02:51.040Z,6.60
2022-10-19T10:05:18.320Z,6.60
2022-10-19T10:07:45.377Z,6.70
2022-10-19T10:10:20.242Z,6.60
2022-10-19T10:12:47.221Z,6.70
2022-10-19T10:15:18.668Z,6.80
2022-10-19T10:17:47.959Z,6.90
2022-10-19T10:20:35.802Z,6.90
2022-10-19T10:23:04.249Z,6.90
2022-10-19T10:25:32.510Z,6.90
2022-10-19T10:28:19.869Z,7.00
2022-10-19T10:30:48.976Z,7.00
2022-10-19T10:33:27.130Z,7.10
2022-10-19T10:36:10.226Z,7.10
2022-10-19T10:38:43.606Z,7.20
2022-10-19T10:41:17.946Z,7.30
2022-10-19T10:44:00.891Z,7.30
2022-10-19T10:46:39.344Z,7.30
2022-10-19T10:49:07.207Z,7.40
2022-10-19T10:51:37.133Z,7.40
2022-10-19T10:54:10.115Z,7.50
2022-10-19T10:56:40.606Z,7.50
2022-10-19T10:59:22.679Z,7.50
2022-10-19T11:01:59.169Z,7.60
2022-10-19T11:04:28.816Z,7.50
2022-10-19T11:06:58.625Z,7.60
2022-10-19T11:09:25.406Z,7.60
2022-10-19T11:11:56.210Z,7.70
2022-10-19T11:14:31.722Z,7.70
2022-10-19T11:17:00.608Z,7.70
2022-10-19T11:19:31.885Z,7.70
2022-10-19T11:22:14.362Z,7.70
2022-10-19T11:24:43.866Z,7.80
2022-10-19T11:27:16.486Z,7.90
2022-10-19T11:29:43.555Z,7.90
2022-10-19T11:32:33.186Z,7.90
2022-10-19T11:35:10.767Z,7.90
2022-10-19T11:38:18.456Z,8.00
2022-10-19T11:41:13.222Z,7.90
2022-10-19T11:43:39.695Z,7.90
2022-10-19T11:46:16.365Z,7.90
2022-10-19T11:49:01.463Z,8.00
2022-10-19T11:51:31.526Z,8.00
2022-10-19T11:53:58.384Z,8.00
2022-10-19T11:56:58.243Z,8.00
2022-10-19T11:59:42.673Z,8.00
2022-10-19T12:02:36.396Z,8.10
2022-10-19T12:05:28.123Z,8.00
2022-10-19T12:08:13.576Z,8.00
2022-10-19T12:10:44.530Z,8.00
2022-10-19T12:13:19.787Z,8.00
2022-10-19T12:15:54.038Z,7.90
2022-10-19T12:18:32.502Z,7.80
2022-10-19T12:21:01.234Z,7.90
2022-10-19T12:23:31.188Z,7.90
2022-10-19T12:25:59.893Z,8.00
2022-10-19T12:28:34.213Z,8.00
2022-10-19T12:31:02.096Z,8.00
2022-10-19T12:33:31.756Z,8.00
2022-10-19T12:36:09.082Z,8.10
2022-10-19T12:38:47.923Z,8.00
2022-10-19T12:41:37.849Z,8.10
2022-10-19T12:44:13.898Z,8.00
2022-10-19T12:46:51.755Z,8.00
2022-10-19T12:49:26.697Z,7.90
2022-10-19T12:51:54.231Z,8.00
2022-10-19T12:54:25.279Z,8.00
2022-10-19T12:56:55.904Z,8.10
2022-10-19T12:59:24.811Z,8.20
2022-10-19T13:01:52.403Z,8.10
2022-10-19T13:04:19.330Z,8.10
2022-10-19T13:06:49.445Z,8.20
2022-10-19T13:09:23.928Z,8.10
2022-10-19T13:12:09.450Z,8.10
2022-10-19T13:14:42.393Z,8.20
2022-10-19T13:17:09.399Z,8.20
2022-10-19T13:19:36.667Z,8.10
2022-10-19T13:22:23.470Z,8.10
2022-10-19T13:25:08.931Z,8.20
2022-10-19T13:27:36.690Z,8.20
2022-10-19T13:30:03.977Z,8.10
2022-10-19T13:32:37.242Z,8.20
2022-10-19T13:35:22.633Z,8.20
2022-10-19T13:38:09.800Z,8.20
2022-10-19T13:40:37.550Z,8.20
2022-10-19T13:43:04.661Z,8.20
2022-10-19T13:45:31.813Z,8.20
2022-10-19T13:48:06.535Z,8.20
2022-10-19T13:50:53.208Z,8.10
2022-10-19T13:53:38.274Z,8.10
2022-10-19T13:56:12.607Z,8.00
2022-10-19T13:58:59.002Z,8.10
2022-10-19T14:01:32.377Z,8.00
2022-10-19T14:03:59.195Z,8.10
2022-10-19T14:06:28.405Z,8.10
2022-10-19T14:08:55.657Z,8.10
2022-10-19T14:11:26.357Z,8.10
2022-10-19T14:14:13.496Z,8.10
2022-10-19T14:16:46.328Z,8.00
2022-10-19T14:19:14.203Z,8.10
2022-10-19T14:21:41.374Z,8.00
2022-10-19T14:24:21.835Z,8.00
2022-10-19T14:26:48.826Z,7.90
2022-10-19T14:29:16.011Z,8.00
2022-10-19T14:31:42.931Z,7.90
2022-10-19T14:34:09.869Z,7.90
2022-10-19T14:36:37.890Z,7.90
2022-10-19T14:39:05.314Z,7.90
2022-10-19T14:44:24.136Z,7.90
2022-10-19T14:46:51.085Z,7.90
2022-10-19T14:49:17.904Z,7.90
2022-10-19T14:51:54.237Z,7.80
2022-10-19T14:54:29.485Z,7.80
2022-10-19T14:57:00.083Z,7.80
2022-10-19T14:59:26.831Z,7.80
2022-10-19T15:01:55.562Z,7.70
2022-10-19T15:04:29.117Z,7.80
2022-10-19T15:06:56.044Z,7.70
2022-10-19T15:09:37.118Z,7.70
2022-10-19T15:12:15.876Z,7.60
2022-10-19T15:14:42.985Z,7.60
2022-10-19T15:17:42.098Z,7.50
2022-10-19T15:20:22.395Z,7.50
2022-10-19T15:22:49.243Z,7.50
2022-10-19T15:25:29.757Z,7.50
2022-10-19T15:27:57.730Z,7.40
2022-10-19T15:30:25.906Z,7.30
2022-10-19T15:32:55.418Z,7.30
2022-10-19T15:35:22.214Z,7.20
2022-10-19T15:37:50.182Z,7.20
2022-10-19T15:40:22.917Z,7.20
2022-10-19T15:42:49.790Z,7.10
2022-10-19T15:45:31.464Z,7.10
2022-10-19T15:48:10.249Z,7.00
2022-10-19T15:50:39.121Z,7.00
2022-10-19T15:53:05.904Z,7.00
2022-10-19T15:55:33.647Z,6.90
2022-10-19T15:58:00.579Z,6.90
2022-10-19T16:00:28.828Z,6.80
2022-10-19T16:02:55.778Z,6.70
2022-10-19T16:05:22.745Z,6.70
2022-10-19T16:07:49.795Z,6.80
2022-10-19T16:10:18.284Z,7.00
2022-10-19T16:12:45.112Z,7.10
2022-10-19T16:15:12.776Z,7.00
2022-10-19T16:17:40.063Z,7.00
2022-10-19T16:20:07.185Z,6.90
2022-10-19T16:22:34.055Z,6.80
2022-10-19T16:25:00.882Z,6.70
2022-10-19T16:27:27.773Z,6.50
2022-10-19T16:29:54.700Z,6.50
2022-10-19T16:32:21.528Z,6.40
2022-10-19T16:34:48.439Z,6.20
2022-10-19T16:37:15.224Z,6.20
2022-10-19T16:39:42.040Z,6.20
2022-10-19T16:42:08.903Z,6.00
2022-10-19T16:44:35.721Z,5.90
2022-10-19T16:47:02.827Z,5.90
2022-10-19T16:49:29.606Z,5.90
2022-10-19T16:51:57.619Z,5.80
2022-10-19T16:54:26.568Z,5.80
2022-10-19T16:56:53.513Z,5.80
2022-10-19T16:59:20.340Z,5.70
2022-10-19T17:01:47.748Z,5.70
2022-10-19T17:04:15.757Z,5.60
2022-10-19T17:06:42.640Z,5.60
2022-10-19T17:11:56.501Z,5.50
2022-10-19T17:14:23.303Z,5.40
2022-10-19T17:16:50.123Z,5.40
2022-10-19T17:19:16.987Z,5.40
2022-10-19T17:21:43.832Z,5.30
2022-10-19T17:24:16.945Z,5.20
2022-10-19T17:26:47.066Z,5.20
2022-10-19T17:29:14.124Z,5.20
2022-10-19T17:31:41.588Z,5.20
2022-10-19T17:34:08.874Z,5.10
2022-10-19T17:36:44.690Z,5.00
2022-10-19T17:39:17.628Z,4.90
2022-10-19T17:41:45.051Z,4.90
2022-10-19T17:44:11.985Z,4.90
2022-10-19T17:46:38.809Z,4.80
2022-10-19T17:49:05.855Z,4.80
2022-10-19T17:51:33.921Z,4.70
2022-10-19T17:54:02.622Z,4.60
2022-10-19T17:56:29.508Z,4.60
2022-10-19T17:58:57.223Z,4.50
2022-10-19T18:01:24.376Z,4.40
2022-10-19T18:03:51.211Z,4.30
2022-10-19T18:06:25.534Z,4.40
2022-10-19T18:08:54.497Z,4.30
2022-10-19T18:11:23.033Z,4.20
2022-10-19T18:13:50.462Z,4.20
2022-10-19T18:16:18.847Z,4.30
2022-10-19T18:18:48.779Z,4.20
2022-10-19T18:21:16.778Z,4.10
2022-10-19T18:23:43.986Z,4.00
2022-10-19T18:26:11.920Z,4.00
2022-10-19T18:28:38.731Z,4.00
2022-10-19T18:31:08.960Z,3.90
2022-10-19T18:33:36.119Z,3.80
2022-10-19T18:36:03.469Z,3.80
2022-10-19T18:38:30.350Z,3.90
2022-10-19T18:41:01.454Z,3.90
2022-10-19T18:43:28.336Z,3.80
2022-10-19T18:45:56.310Z,3.80
2022-10-19T18:48:24.346Z,3.70
2022-10-19T18:50:51.212Z,3.70
2022-10-19T18:53:18.476Z,3.70
2022-10-19T18:55:45.690Z,3.70
2022-10-19T18:58:12.564Z,3.70
2022-10-19T19:00:45.626Z,3.70
2022-10-19T19:03:12.741Z,3.70
2022-10-19T19:05:39.584Z,3.70
2022-10-19T19:08:06.432Z,3.60
2022-10-19T19:10:33.270Z,3.70
2022-10-19T19:13:00.231Z,3.60
2022-10-19T19:15:27.045Z,3.60
2022-10-19T19:17:54.260Z,3.50
2022-10-19T19:20:21.096Z,3.40
2022-10-19T19:22:47.906Z,3.40
2022-10-19T19:25:14.744Z,3.30
2022-10-19T19:27:41.527Z,3.30
2022-10-19T19:30:09.438Z,3.30
2022-10-19T19:32:36.640Z,3.30
2022-10-19T19:35:03.649Z,3.30
2022-10-19T19:37:31.089Z,3.20
2022-10-19T19:39:58.056Z,3.10
2022-10-19T19:42:27.776Z,3.10
2022-10-19T19:44:54.929Z,3.10
2022-10-19T19:47:21.770Z,3.00
2022-10-19T19:49:48.562Z,3.00
2022-10-19T19:52:15.435Z,3.10
2022-10-19T19:54:42.284Z,3.10
2022-10-19T19:57:09.101Z,3.00
2022-10-19T19:59:36.134Z,3.00
2022-10-19T20:02:03.114Z,3.00
2022-10-19T20:04:29.968Z,2.90
2022-10-19T20:06:56.807Z,2.90
2022-10-19T20:09:23.622Z,2.90
2022-10-19T20:11:50.562Z,2.90
2022-10-19T20:14:18.806Z,2.90
2022-10-19T20:16:45.686Z,2.90
2022-10-19T20:19:13.786Z,2.90
2022-10-19T20:21:41.204Z,2.90
2022-10-19T20:24:08.189Z,2.80
2022-10-19T20:26:35.119Z,2.80
2022-10-19T20:29:02.731Z,2.80
2022-10-19T20:31:30.267Z,2.70
2022-10-19T20:33:57.142Z,2.70
2022-10-19T20:36:25.683Z,2.60
2022-10-19T20:38:54.081Z,2.60
2022-10-19T20:41:21.740Z,2.60
2022-10-19T20:43:48.861Z,2.60
2022-10-19T20:46:22.326Z,2.70
2022-10-19T20:48:49.683Z,2.60
2022-10-19T20:51:20.635Z,2.60
2022-10-19T20:53:48.292Z,2.60
2022-10-19T20:56:16.557Z,2.50
2022-10-19T20:58:44.973Z,2.50
2022-10-19T21:01:16.946Z,2.50
2022-10-19T21:03:49.845Z,2.60
2022-10-19T21:06:16.742Z,2.60
2022-10-19T21:08:43.653Z,2.50
2022-10-19T21:11:21.101Z,2.50
2022-10-19T21:13:48.388Z,2.40
2022-10-19T21:16:16.114Z,2.40
2022-10-19T21:18:43.752Z,2.40
2022-10-19T21:21:11.589Z,2.40
2022-10-19T21:23:38.504Z,2.40
2022-10-19T21:26:05.339Z,2.40
2022-10-19T21:28:32.181Z,2.40
2022-10-19T21:31:09.576Z,2.40
2022-10-19T21:33:36.492Z,2.40
2022-10-19T21:36:04.458Z,2.40
2022-10-19T21:38:31.400Z,2.40
2022-10-19T21:40:58.989Z,2.40
2022-10-19T21:43:25.970Z,2.40
2022-10-19T21:45:52.799Z,2.40
2022-10-19T21:48:19.708Z,2.40
2022-10-19T21:50:46.561Z,2.40
2022-10-19T21:53:13.490Z,2.40
2022-10-19T21:55:40.299Z,2.40
2022-10-19T21:58:07.124Z,2.30
2022-10-19T22:00:33.974Z,2.30
2022-10-19T22:03:00.771Z,2.30
2022-10-19T22:05:27.552Z,2.30
2022-10-19T22:07:54.446Z,2.20
2022-10-19T22:10:21.264Z,2.10
2022-10-19T22:12:48.119Z,2.10
2022-10-19T22:15:15.104Z,2.10
2022-10-19T22:17:42.069Z,2.10
2022-10-19T22:20:09.214Z,2.10
2022-10-19T22:22:36.502Z,2.10
2022-10-19T22:25:03.623Z,2.10
2022-10-19T22:27:30.432Z,2.10
2022-10-19T22:29:57.292Z,2.10
2022-10-19T22:32:24.105Z,2.10
2022-10-19T22:34:51.022Z,2.10
2022-10-19T22:37:17.789Z,2.10
2022-10-19T22:39:44.636Z,2.00
2022-10-19T22:42:11.432Z,2.00
2022-10-19T22:44:38.350Z,2.00
2022-10-19T22:47:05.247Z,2.00
2022-10-19T22:49:33.237Z,2.00
2022-10-19T22:52:00.049Z,2.00
2022-10-19T22:54:26.871Z,2.00
2022-10-19T22:56:53.941Z,2.00
2022-10-19T22:59:20.774Z,2.00
2022-10-19T23:01:47.713Z,2.00
2022-10-19T23:04:14.637Z,1.90
2022-10-19T23:06:41.469Z,1.90
2022-10-19T23:09:08.254Z,1.90
2022-10-19T23:11:35.332Z,1.90
2022-10-19T23:14:02.132Z,1.90
2022-10-19T23:16:29.150Z,1.90
2022-10-19T23:18:55.989Z,1.80
2022-10-19T23:21:22.924Z,1.80
2022-10-19T23:23:49.811Z,1.70
2022-10-19T23:26:17.969Z,1.70
2022-10-19T23:28:45.916Z,1.70
2022-10-19T23:31:19.806Z,1.70
2022-10-19T23:33:47.142Z,1.70
2022-10-19T23:36:15.797Z,1.70
2022-10-19T23:38:43.182Z,1.70
2022-10-19T23:41:10.399Z,1.70
2022-10-19T23:43:37.624Z,1.70
2022-10-19T23:46:04.477Z,1.70
2022-10-19T23:48:31.359Z,1.70
2022-10-19T23:50:58.189Z,1.70
2022-10-19T23:53:25.048Z,1.70
2022-10-19T23:55:51.955Z,1.70
2022-10-19T23:58:18.762Z,1.60
